createdAt,value
2019-03-09T00:02:07.108Z,11.18
2019-03-09T00:04:35.554Z,11.83
2019-03-09T00:07:04.197Z,11.30
2019-03-09T00:09:32.642Z,11.30
2019-03-09T00:12:01.400Z,11.40
2019-03-09T00:14:29.941Z,11.10
2019-03-09T00:16:58.578Z,11.45
2019-03-09T00:19:27.189Z,10.98
2019-03-09T00:21:55.796Z,11.08
2019-03-09T00:24:31.884Z,11.53
2019-03-09T00:27:02.064Z,11.18
2019-03-09T00:29:32.189Z,11.00
2019-03-09T00:32:04.712Z,10.82
2019-03-09T00:34:34.881Z,10.95
2019-03-09T00:37:03.780Z,9.03
2019-03-09T00:39:32.318Z,8.58
2019-03-09T00:42:00.831Z,7.53
2019-03-09T00:44:29.311Z,6.83
2019-03-09T00:46:57.760Z,6.35
2019-03-09T00:49:26.586Z,6.28
2019-03-09T00:51:57.355Z,6.10
2019-03-09T00:54:25.870Z,6.53
2019-03-09T00:56:54.561Z,5.78
2019-03-09T00:59:23.022Z,6.45
2019-03-09T01:01:51.481Z,6.00
2019-03-09T01:04:20.014Z,6.22
2019-03-09T01:06:48.526Z,6.42
2019-03-09T01:09:17.001Z,5.45
2019-03-09T01:12:03.889Z,6.22
2019-03-09T01:14:32.371Z,5.67
2019-03-09T01:17:00.836Z,6.35
2019-03-09T01:19:29.311Z,6.08
2019-03-09T01:21:57.764Z,5.60
2019-03-09T01:24:26.272Z,5.78
2019-03-09T01:26:55.447Z,5.60
2019-03-09T01:29:23.923Z,5.90
2019-03-09T01:31:52.406Z,6.25
2019-03-09T01:34:20.935Z,5.72
2019-03-09T01:36:49.405Z,6.55
2019-03-09T01:39:17.880Z,6.03
2019-03-09T01:41:46.395Z,6.62
2019-03-09T01:44:15.267Z,6.55
2019-03-09T01:46:43.712Z,6.80
2019-03-09T01:49:12.197Z,6.95
2019-03-09T01:51:40.652Z,6.70
2019-03-09T01:54:09.136Z,6.37
2019-03-09T01:56:37.599Z,7.17
2019-03-09T01:59:06.072Z,7.62
2019-03-09T02:01:35.639Z,6.90
2019-03-09T02:04:04.118Z,7.72
2019-03-09T02:06:32.564Z,7.87
2019-03-09T02:09:01.081Z,8.20
2019-03-09T02:11:29.561Z,8.10
2019-03-09T02:13:58.011Z,8.20
2019-03-09T02:16:26.487Z,7.93
2019-03-09T02:18:54.946Z,8.05
2019-03-09T02:21:23.435Z,7.70
2019-03-09T02:23:51.959Z,9.38
2019-03-09T02:26:20.443Z,8.33
2019-03-09T02:28:48.889Z,8.88
2019-03-09T02:31:17.380Z,8.28
2019-03-09T02:33:45.835Z,8.23
2019-03-09T02:36:14.349Z,9.03
2019-03-09T02:38:44.457Z,8.75
2019-03-09T02:41:12.914Z,7.87
2019-03-09T02:43:41.381Z,8.15
2019-03-09T02:46:09.847Z,8.70
2019-03-09T02:48:38.775Z,8.63
2019-03-09T02:51:07.434Z,8.50
2019-03-09T02:53:36.020Z,8.23
2019-03-09T02:56:04.500Z,8.23
2019-03-09T02:58:32.940Z,9.20
2019-03-09T03:01:05.786Z,7.95
2019-03-09T03:03:34.251Z,8.60
2019-03-09T03:06:06.278Z,8.48
2019-03-09T03:08:34.792Z,8.50
2019-03-09T03:11:03.256Z,8.23
2019-03-09T03:13:31.726Z,9.15
2019-03-09T03:16:00.208Z,9.03
2019-03-09T03:18:28.666Z,8.80
2019-03-09T03:20:57.144Z,9.23
2019-03-09T03:23:26.080Z,9.45
2019-03-09T03:25:54.561Z,8.58
2019-03-09T03:28:23.006Z,8.83
2019-03-09T03:30:51.532Z,8.50
2019-03-09T03:33:20.052Z,8.95
2019-03-09T03:35:48.580Z,9.10
2019-03-09T03:38:17.032Z,7.78
2019-03-09T03:40:47.008Z,9.58
2019-03-09T03:43:16.299Z,8.95
2019-03-09T03:45:44.907Z,9.20
2019-03-09T03:48:13.378Z,9.15
2019-03-09T03:50:41.833Z,8.78
2019-03-09T03:53:10.301Z,8.35
2019-03-09T03:55:38.745Z,9.18
2019-03-09T03:58:07.956Z,9.50
2019-03-09T04:00:36.490Z,9.55
2019-03-09T04:03:04.995Z,10.00
2019-03-09T04:05:33.454Z,10.43
2019-03-09T04:08:02.003Z,10.63
2019-03-09T04:10:30.742Z,11.33
2019-03-09T04:12:59.192Z,10.55
2019-03-09T04:15:27.683Z,11.25
2019-03-09T04:17:56.143Z,11.25
2019-03-09T04:20:24.637Z,11.35
2019-03-09T04:22:53.097Z,10.65
2019-03-09T04:25:21.593Z,11.83
2019-03-09T04:27:50.219Z,11.10
2019-03-09T04:30:18.722Z,11.88
2019-03-09T04:32:47.186Z,11.85
2019-03-09T04:35:15.634Z,12.40
2019-03-09T04:37:44.194Z,11.60
2019-03-09T04:40:13.788Z,10.80
2019-03-09T04:42:42.269Z,10.80
2019-03-09T04:45:12.359Z,11.10
2019-03-09T04:47:40.844Z,10.50
2019-03-09T04:50:12.267Z,10.82
2019-03-09T04:52:40.789Z,10.65
2019-03-09T04:55:09.783Z,11.10
2019-03-09T04:57:39.460Z,11.10
2019-03-09T05:00:11.217Z,11.35
2019-03-09T05:02:39.747Z,11.73
2019-03-09T05:05:10.028Z,11.43
2019-03-09T05:07:40.697Z,11.53
2019-03-09T05:10:12.509Z,10.98
2019-03-09T05:12:41.982Z,11.28
2019-03-09T05:15:13.465Z,11.35
2019-03-09T05:17:41.907Z,11.65
2019-03-09T05:20:10.502Z,11.28
2019-03-09T05:22:38.984Z,11.35
2019-03-09T05:25:07.460Z,11.40
2019-03-09T05:27:35.932Z,11.70
2019-03-09T05:30:07.129Z,10.18
2019-03-09T05:32:35.712Z,11.70
2019-03-09T05:35:05.701Z,10.50
2019-03-09T05:37:42.914Z,11.43
2019-03-09T05:40:07.698Z,10.98
2019-03-09T05:42:36.151Z,11.38
2019-03-09T05:45:06.080Z,11.65
2019-03-09T05:47:34.546Z,11.73
2019-03-09T05:50:04.688Z,10.70
2019-03-09T05:52:33.204Z,11.05
2019-03-09T05:55:02.638Z,11.80
2019-03-09T05:57:31.102Z,10.82
2019-03-09T05:59:59.582Z,11.45
2019-03-09T06:02:28.060Z,11.50
2019-03-09T06:04:56.557Z,12.70
2019-03-09T06:07:25.020Z,11.85
2019-03-09T06:09:53.480Z,12.78
2019-03-09T06:12:21.958Z,12.90
2019-03-09T06:14:50.417Z,12.73
2019-03-09T06:17:18.897Z,13.40
2019-03-09T06:19:47.343Z,12.07
2019-03-09T06:22:15.818Z,13.00
2019-03-09T06:24:44.289Z,13.45
2019-03-09T06:27:12.790Z,12.80
2019-03-09T06:29:41.610Z,13.68
2019-03-09T06:32:34.450Z,12.53
2019-03-09T06:35:03.553Z,13.90
2019-03-09T06:37:33.265Z,12.45
2019-03-09T06:40:01.736Z,13.78
2019-03-09T06:42:36.530Z,13.98
2019-03-09T06:45:08.153Z,14.18
2019-03-09T06:47:40.811Z,13.40
2019-03-09T06:50:14.409Z,13.28
2019-03-09T06:52:42.865Z,13.70
2019-03-09T06:55:13.212Z,13.00
2019-03-09T06:57:41.677Z,13.60
2019-03-09T07:00:28.459Z,13.38
2019-03-09T07:02:56.918Z,13.53
2019-03-09T07:05:25.425Z,13.62
2019-03-09T07:07:53.888Z,13.88
2019-03-09T07:10:22.340Z,13.83
2019-03-09T07:12:50.816Z,14.83
2019-03-09T07:15:22.181Z,14.30
2019-03-09T07:17:51.916Z,14.40
2019-03-09T07:20:20.395Z,14.38
2019-03-09T07:22:48.893Z,14.18
2019-03-09T07:25:17.352Z,14.73
2019-03-09T07:28:06.320Z,15.53
2019-03-09T07:30:34.757Z,14.58
2019-03-09T07:33:03.344Z,14.68
2019-03-09T07:35:31.819Z,14.80
2019-03-09T07:38:00.279Z,15.58
2019-03-09T07:40:28.764Z,14.20
2019-03-09T07:42:57.222Z,15.10
2019-03-09T07:45:25.706Z,15.35
2019-03-09T07:47:54.162Z,15.93
2019-03-09T07:50:22.734Z,16.20
2019-03-09T07:52:51.204Z,16.55
2019-03-09T07:55:22.186Z,14.95
2019-03-09T07:57:50.635Z,15.60
2019-03-09T08:00:22.338Z,15.03
2019-03-09T08:02:51.936Z,16.27
2019-03-09T08:05:20.891Z,16.70
2019-03-09T08:07:49.360Z,16.37
2019-03-09T08:10:20.127Z,16.15
2019-03-09T08:12:48.621Z,15.23
2019-03-09T08:15:19.887Z,15.88
2019-03-09T08:17:48.465Z,15.03
2019-03-09T08:20:21.856Z,14.95
2019-03-09T08:22:50.341Z,15.43
2019-03-09T08:25:23.404Z,15.10
2019-03-09T08:27:51.940Z,16.02
2019-03-09T08:30:25.016Z,15.10
2019-03-09T08:32:53.503Z,16.00
2019-03-09T08:35:24.643Z,16.23
2019-03-09T08:37:55.040Z,16.40
2019-03-09T08:40:23.326Z,16.32
2019-03-09T08:42:57.661Z,16.45
2019-03-09T08:45:30.633Z,15.68
2019-03-09T08:47:59.091Z,16.12
2019-03-09T08:50:27.615Z,16.82
2019-03-09T08:52:56.082Z,18.27
2019-03-09T08:55:24.969Z,16.20
2019-03-09T08:57:53.446Z,17.05
2019-03-09T09:00:26.865Z,16.30
2019-03-09T09:02:55.402Z,18.35
2019-03-09T09:05:23.866Z,17.17
2019-03-09T09:07:52.348Z,17.52
2019-03-09T09:10:20.811Z,16.90
2019-03-09T09:12:52.627Z,17.98
2019-03-09T09:15:20.583Z,18.23
2019-03-09T09:17:49.073Z,17.20
2019-03-09T09:20:23.255Z,17.10
2019-03-09T09:22:51.732Z,15.68
2019-03-09T09:25:20.252Z,15.53
2019-03-09T09:27:48.748Z,15.98
2019-03-09T09:30:20.626Z,14.63
2019-03-09T09:32:49.055Z,14.87
2019-03-09T09:35:18.062Z,14.65
2019-03-09T09:37:46.548Z,13.62
2019-03-09T09:40:25.946Z,14.28
2019-03-09T09:42:54.482Z,12.10
2019-03-09T09:45:22.967Z,12.85
2019-03-09T09:47:52.220Z,11.40
2019-03-09T09:50:20.807Z,11.00
2019-03-09T09:52:49.274Z,11.93
2019-03-09T09:55:19.112Z,10.03
2019-03-09T09:57:47.589Z,9.78
2019-03-09T10:00:27.188Z,10.85
2019-03-09T10:02:55.647Z,9.20
2019-03-09T10:05:24.928Z,7.90
2019-03-09T10:07:53.624Z,8.23
2019-03-09T10:10:24.570Z,7.45
2019-03-09T10:12:55.552Z,7.85
2019-03-09T10:15:31.788Z,7.90
2019-03-09T10:18:00.277Z,8.05
2019-03-09T10:20:28.950Z,8.53
2019-03-09T10:23:04.024Z,8.30
2019-03-09T10:25:27.873Z,8.40
2019-03-09T10:27:56.439Z,8.28
2019-03-09T10:30:26.662Z,6.78
2019-03-09T10:32:55.099Z,5.33
2019-03-09T10:35:23.614Z,5.10
2019-03-09T10:37:52.084Z,5.40
2019-03-09T10:40:23.437Z,5.50
2019-03-09T10:42:52.007Z,4.53
2019-03-09T10:45:21.986Z,4.20
2019-03-09T10:47:51.123Z,4.50
2019-03-09T10:50:25.969Z,4.08
2019-03-09T10:52:55.114Z,4.15
2019-03-09T10:55:29.173Z,3.42
2019-03-09T10:57:57.874Z,2.90
2019-03-09T11:00:39.963Z,2.92
2019-03-09T11:03:08.519Z,3.10
2019-03-09T11:05:37.073Z,3.72
2019-03-09T11:08:05.562Z,3.55
2019-03-09T11:10:34.057Z,4.00
2019-03-09T11:13:02.522Z,2.45
2019-03-09T11:15:31.668Z,2.47
2019-03-09T11:18:00.095Z,2.33
2019-03-09T11:20:28.599Z,2.33
2019-03-09T11:23:01.971Z,2.35
2019-03-09T11:25:30.521Z,2.75
2019-03-09T11:28:09.750Z,2.47
2019-03-09T11:30:37.996Z,2.05
2019-03-09T11:33:21.889Z,2.77
2019-03-09T11:35:50.618Z,2.65
2019-03-09T11:38:19.148Z,2.60
2019-03-09T11:40:56.835Z,2.17
2019-03-09T11:43:19.269Z,3.15
2019-03-09T11:45:47.719Z,2.95
2019-03-09T11:48:20.398Z,3.12
2019-03-09T11:51:05.426Z,2.40
2019-03-09T11:53:33.954Z,3.62
2019-03-09T11:56:04.137Z,4.15
2019-03-09T11:58:34.363Z,3.02
2019-03-09T12:01:02.960Z,3.20
2019-03-09T12:03:40.271Z,2.77
2019-03-09T12:06:08.744Z,2.80
2019-03-09T12:08:38.314Z,3.02
2019-03-09T12:11:06.788Z,3.10
2019-03-09T12:13:35.302Z,3.08
2019-03-09T12:16:03.785Z,3.33
2019-03-09T12:18:32.295Z,3.80
2019-03-09T12:21:00.771Z,4.10
2019-03-09T12:23:29.247Z,3.75
2019-03-09T12:25:57.873Z,4.22
2019-03-09T12:28:26.350Z,3.17
2019-03-09T12:30:54.850Z,3.17
2019-03-09T12:33:23.338Z,3.50
2019-03-09T12:35:51.798Z,3.30
2019-03-09T12:38:20.390Z,2.52
2019-03-09T12:40:53.857Z,3.22
2019-03-09T12:43:23.718Z,2.83
2019-03-09T12:45:52.263Z,3.52
2019-03-09T12:48:22.659Z,4.45
2019-03-09T12:50:51.131Z,3.85
2019-03-09T12:53:19.623Z,3.50
2019-03-09T12:55:50.486Z,3.20
2019-03-09T12:58:19.046Z,4.47
2019-03-09T13:00:48.409Z,2.98
2019-03-09T13:03:17.006Z,3.45
2019-03-09T13:05:47.870Z,3.20
2019-03-09T13:08:16.349Z,3.20
2019-03-09T13:10:44.899Z,3.33
2019-03-09T13:13:16.711Z,3.87
2019-03-09T13:18:16.161Z,3.37
2019-03-09T13:20:43.985Z,3.42
2019-03-09T13:23:12.515Z,3.47
2019-03-09T13:25:40.990Z,3.12
2019-03-09T13:28:09.516Z,3.10
2019-03-09T13:30:43.883Z,3.20
2019-03-09T13:33:12.555Z,3.15
2019-03-09T13:35:41.723Z,3.35
2019-03-09T13:38:12.659Z,3.65
2019-03-09T13:40:41.581Z,3.75
2019-03-09T13:43:10.112Z,3.25
2019-03-09T13:45:39.775Z,3.40
2019-03-09T13:48:08.453Z,3.80
2019-03-09T13:50:38.888Z,3.47
2019-03-09T13:53:36.330Z,3.35
2019-03-09T13:56:05.037Z,3.77
2019-03-09T14:01:49.329Z,3.83
2019-03-09T14:05:11.916Z,4.47
2019-03-09T14:08:06.668Z,4.22
2019-03-09T14:10:44.017Z,3.92
2019-03-09T14:13:16.528Z,4.35
2019-03-09T14:15:45.012Z,3.85
2019-03-09T14:18:17.809Z,4.40
2019-03-09T14:20:48.530Z,4.37
2019-03-09T14:23:17.105Z,3.92
2019-03-09T14:25:46.219Z,3.37
2019-03-09T14:28:33.425Z,3.60
2019-03-09T14:31:03.573Z,3.62
2019-03-09T14:34:18.451Z,3.85
2019-03-09T14:36:47.046Z,4.15
2019-03-09T14:40:05.476Z,3.58
2019-03-09T14:42:34.107Z,3.45
2019-03-09T14:45:05.956Z,3.92
2019-03-09T14:47:34.473Z,4.28
2019-03-09T14:50:03.474Z,4.42
2019-03-09T14:52:32.061Z,3.90
2019-03-09T14:55:00.759Z,4.22
2019-03-09T14:57:38.530Z,4.15
2019-03-09T15:00:24.886Z,4.37
2019-03-09T15:05:53.104Z,4.33
2019-03-09T15:08:22.185Z,3.90
2019-03-09T15:10:51.839Z,3.92
2019-03-09T15:13:20.329Z,3.77
2019-03-09T15:15:48.922Z,4.17
2019-03-09T15:18:17.410Z,3.85
2019-03-09T15:20:55.786Z,4.65
2019-03-09T15:23:24.271Z,4.17
2019-03-09T15:25:54.505Z,4.92
2019-03-09T15:28:24.596Z,4.53
2019-03-09T15:30:53.128Z,5.25
2019-03-09T15:33:22.025Z,4.55
2019-03-09T15:35:50.837Z,4.47
2019-03-09T15:38:28.617Z,4.70
2019-03-09T15:40:57.068Z,5.03
2019-03-09T15:43:25.871Z,4.67
2019-03-09T15:45:57.915Z,4.85
2019-03-09T15:50:54.955Z,4.62
2019-03-09T15:53:23.578Z,4.85
2019-03-09T15:55:58.110Z,4.75
2019-03-09T15:58:26.626Z,5.25
2019-03-09T16:04:02.218Z,5.28
2019-03-09T16:06:30.800Z,5.08
2019-03-09T16:09:02.024Z,5.08
2019-03-09T16:11:32.251Z,5.40
2019-03-09T16:14:00.773Z,5.37
2019-03-09T16:16:29.342Z,5.15
2019-03-09T16:19:00.216Z,4.87
2019-03-09T16:21:36.006Z,5.83
2019-03-09T16:24:06.259Z,5.10
2019-03-09T16:26:34.823Z,5.42
2019-03-09T16:29:03.393Z,5.28
2019-03-09T16:31:31.886Z,5.22
2019-03-09T16:34:00.419Z,5.78
2019-03-09T16:36:30.547Z,5.40
2019-03-09T16:38:59.175Z,5.58
2019-03-09T16:41:27.654Z,5.70
2019-03-09T16:43:56.230Z,5.60
2019-03-09T16:46:24.701Z,5.53
2019-03-09T16:48:54.131Z,5.85
2019-03-09T16:51:22.687Z,5.78
2019-03-09T16:54:13.967Z,5.55
2019-03-09T16:56:42.539Z,6.05
2019-03-09T16:59:13.629Z,6.50
2019-03-09T17:01:42.109Z,6.08
2019-03-09T17:04:10.718Z,6.30
2019-03-09T17:06:40.808Z,6.55
2019-03-09T17:09:09.331Z,6.10
2019-03-09T17:11:37.843Z,6.35
2019-03-09T17:14:09.495Z,6.37
2019-03-09T17:16:38.727Z,7.35
2019-03-09T17:19:07.282Z,7.28
2019-03-09T17:21:35.877Z,7.05
2019-03-09T17:24:04.420Z,7.30
2019-03-09T17:26:32.981Z,6.33
2019-03-09T17:29:01.459Z,6.80
2019-03-09T17:31:29.968Z,6.80
2019-03-09T17:33:58.490Z,6.35
2019-03-09T17:36:27.015Z,5.72
2019-03-09T17:38:55.570Z,6.58
2019-03-09T17:41:24.055Z,6.67
2019-03-09T17:43:52.631Z,6.25
2019-03-09T17:46:21.102Z,6.40
2019-03-09T17:48:49.666Z,6.33
2019-03-09T17:51:18.140Z,8.75
2019-03-09T17:53:46.847Z,22.62
2019-03-09T17:56:15.391Z,14.65
2019-03-09T17:58:43.881Z,10.08
2019-03-09T18:01:13.378Z,8.60
2019-03-09T18:03:42.021Z,7.10
2019-03-09T18:06:10.485Z,8.08
2019-03-09T18:08:38.969Z,7.75
2019-03-09T18:11:10.112Z,7.50
2019-03-09T18:13:38.731Z,7.60
2019-03-09T18:16:07.285Z,7.90
2019-03-09T18:18:35.770Z,7.67
2019-03-09T18:21:05.837Z,8.23
2019-03-09T18:23:37.154Z,8.58
2019-03-09T18:26:06.607Z,8.20
2019-03-09T18:28:36.786Z,7.90
2019-03-09T18:31:05.341Z,9.48
2019-03-09T18:33:33.866Z,9.33
2019-03-09T18:36:02.321Z,8.73
2019-03-09T18:38:42.589Z,9.93
2019-03-09T18:41:11.148Z,9.30
2019-03-09T18:43:39.850Z,9.30
2019-03-09T18:46:08.325Z,9.90
2019-03-09T18:48:36.934Z,8.90
2019-03-09T18:51:05.442Z,9.38
2019-03-09T18:53:33.959Z,9.55
2019-03-09T18:56:05.278Z,9.13
2019-03-09T18:58:34.057Z,10.03
2019-03-09T19:01:08.872Z,9.45
2019-03-09T19:03:37.346Z,9.40
2019-03-09T19:06:06.931Z,8.88
2019-03-09T19:08:36.531Z,9.38
2019-03-09T19:11:06.763Z,9.05
2019-03-09T19:13:45.742Z,10.20
2019-03-09T19:16:14.279Z,9.05
2019-03-09T19:18:44.893Z,9.48
2019-03-09T19:21:13.683Z,10.13
2019-03-09T19:23:42.373Z,10.35
2019-03-09T19:26:10.961Z,12.80
2019-03-09T19:28:39.457Z,11.20
2019-03-09T19:33:56.802Z,11.57
2019-03-09T19:36:25.273Z,11.90
2019-03-09T19:38:53.757Z,12.20
2019-03-09T19:41:22.523Z,12.80
2019-03-09T19:43:51.086Z,11.35
2019-03-09T19:46:19.657Z,11.12
2019-03-09T19:48:48.272Z,11.18
2019-03-09T19:51:16.743Z,11.05
2019-03-09T19:53:45.290Z,10.78
2019-03-09T19:56:13.844Z,11.15
2019-03-09T19:58:42.322Z,11.03
2019-03-09T20:01:10.878Z,11.22
2019-03-09T20:03:39.345Z,10.78
2019-03-09T20:06:08.609Z,13.72
2019-03-09T20:08:37.136Z,12.80
2019-03-09T20:11:05.610Z,12.13
2019-03-09T20:13:34.090Z,16.95
2019-03-09T20:16:02.601Z,17.80
2019-03-09T20:18:31.084Z,17.02
2019-03-09T20:20:59.549Z,14.70
2019-03-09T20:23:28.101Z,9.05
2019-03-09T20:25:56.560Z,8.00
2019-03-09T20:28:25.051Z,7.53
2019-03-09T20:30:59.784Z,7.62
2019-03-09T20:33:28.928Z,9.95
2019-03-09T20:35:57.500Z,9.53
2019-03-09T20:38:25.993Z,7.80
2019-03-09T20:40:54.463Z,6.37
2019-03-09T20:43:23.073Z,5.95
2019-03-09T20:45:51.604Z,5.80
2019-03-09T20:48:20.319Z,5.55
2019-03-09T20:50:48.782Z,5.85
2019-03-09T20:53:21.288Z,6.78
2019-03-09T20:55:49.807Z,5.20
2019-03-09T20:58:18.352Z,4.58
2019-03-09T21:00:46.881Z,4.72
2019-03-09T21:03:15.404Z,5.55
2019-03-09T21:05:43.899Z,5.35
2019-03-09T21:08:12.388Z,6.70
2019-03-09T21:10:40.996Z,6.33
2019-03-09T21:13:11.289Z,6.25
2019-03-09T21:15:39.864Z,5.55
2019-03-09T21:18:08.444Z,5.45
2019-03-09T21:20:36.916Z,6.20
2019-03-09T21:23:05.410Z,7.00
2019-03-09T21:25:33.875Z,7.00
2019-03-09T21:28:02.425Z,7.08
2019-03-09T21:30:30.896Z,7.22
2019-03-09T21:32:59.394Z,7.60
2019-03-09T21:35:27.850Z,7.12
2019-03-09T21:37:56.419Z,8.38
2019-03-09T21:40:24.881Z,8.35
2019-03-09T21:42:53.359Z,7.12
2019-03-09T21:45:21.905Z,7.35
2019-03-09T21:47:50.372Z,6.37
2019-03-09T21:50:18.899Z,6.75
2019-03-09T21:52:47.366Z,6.97
2019-03-09T21:55:16.798Z,7.03
2019-03-09T21:57:45.255Z,7.35
2019-03-09T22:00:18.157Z,5.85
2019-03-09T22:02:46.618Z,6.62
2019-03-09T22:05:15.162Z,6.75
2019-03-09T22:07:43.672Z,7.47
2019-03-09T22:10:12.880Z,6.70
2019-03-09T22:12:41.423Z,7.05
2019-03-09T22:15:14.152Z,7.55
2019-03-09T22:17:42.619Z,7.55
2019-03-09T22:20:12.731Z,7.20
2019-03-09T22:22:41.214Z,7.35
2019-03-09T22:25:13.819Z,6.75
2019-03-09T22:27:42.277Z,7.03
2019-03-09T22:30:14.829Z,6.83
2019-03-09T22:32:43.354Z,6.03
2019-03-09T22:35:12.987Z,6.10
2019-03-09T22:37:41.421Z,6.47
2019-03-09T22:40:15.711Z,5.70
2019-03-09T22:42:44.217Z,5.75
2019-03-09T22:45:13.923Z,6.35
2019-03-09T22:47:42.380Z,6.83
2019-03-09T22:50:16.692Z,6.08
2019-03-09T22:52:45.530Z,6.47
2019-03-09T22:55:15.123Z,5.83
2019-03-09T22:57:43.592Z,6.37
2019-03-09T23:00:28.597Z,6.15
2019-03-09T23:02:57.077Z,6.08
2019-03-09T23:05:25.561Z,6.18
2019-03-09T23:07:54.115Z,5.67
2019-03-09T23:10:24.069Z,5.65
2019-03-09T23:12:52.545Z,5.95
2019-03-09T23:15:21.120Z,6.65
2019-03-09T23:17:49.587Z,6.30
2019-03-09T23:20:18.212Z,6.25
2019-03-09T23:22:46.745Z,6.28
2019-03-09T23:25:15.442Z,5.85
2019-03-09T23:27:43.932Z,6.50
2019-03-09T23:30:15.664Z,6.78
2019-03-09T23:32:46.578Z,6.83
2019-03-09T23:35:15.184Z,6.45
2019-03-09T23:37:44.078Z,6.17
2019-03-09T23:40:17.268Z,6.05
2019-03-09T23:42:45.831Z,6.37
2019-03-09T23:45:16.815Z,5.97
2019-03-09T23:47:46.949Z,6.58
2019-03-09T23:50:16.660Z,6.20
2019-03-09T23:52:45.310Z,5.47
2019-03-09T23:55:21.827Z,5.85
2019-03-09T23:57:44.256Z,6.25
